FACH1 SAEZ-SCEL
Flight info
| Callsign | FACH1 |
|---|---|
| Flight time | N/A |
| Altitude | 35000 |
| Route | ASADA1E ASADA UM424 SINAL UT688 ASOLO UT687 UMKAL UMKAL7C |
| Aircraft | B763/H-SDFHIM3RYZ/6244 |
Departure
| Time | 2026-04-29 02:04 |
|---|---|
| Airport | Ezeiza International Airport - Ministro Pistarini (SAEZ) |
Arrival
| Time | N/A |
|---|---|
| Airport | Comodoro Arturo Merino Benítez International Airport (SCEL) |
| Time | Latitude | Longitude | Altitude | Speed | Heading |
|---|---|---|---|---|---|
| 2026-04-29 01:23 | -34.81556 | -58.53930 | 87 ft | 0 kts | 320° |
| 2026-04-29 01:54 | -34.81555 | -58.53930 | 87 ft | 0 kts | 323° |
| 2026-04-29 01:54 | -34.81544 | -58.53930 | 87 ft | 2 kts | 16° |
| 2026-04-29 01:55 | -34.81538 | -58.53920 | 88 ft | 0 kts | 71° |
| 2026-04-29 01:55 | -34.81543 | -58.53900 | 88 ft | 6 kts | 120° |
| 2026-04-29 01:55 | -34.81589 | -58.53846 | 88 ft | 11 kts | 137° |
| 2026-04-29 01:55 | -34.81666 | -58.53772 | 86 ft | 17 kts | 146° |
| 2026-04-29 01:56 | -34.81787 | -58.53695 | 82 ft | 20 kts | 158° |
| 2026-04-29 01:56 | -34.81895 | -58.53637 | 79 ft | 17 kts | 155° |
| 2026-04-29 01:56 | -34.81980 | -58.53589 | 76 ft | 14 kts | 154° |
| 2026-04-29 01:56 | -34.82078 | -58.53533 | 75 ft | 12 kts | 156° |
| 2026-04-29 01:57 | -34.82157 | -58.53489 | 74 ft | 13 kts | 156° |
| 2026-04-29 01:57 | -34.82255 | -58.53437 | 74 ft | 17 kts | 156° |
| 2026-04-29 01:57 | -34.82279 | -58.53421 | 74 ft | 2 kts | 132° |
| 2026-04-29 01:57 | -34.82306 | -58.53400 | 74 ft | 7 kts | 154° |
| 2026-04-29 01:58 | -34.82330 | -58.53387 | 74 ft | 2 kts | 147° |
| 2026-04-29 01:58 | -34.82320 | -58.53347 | 74 ft | 1 kts | 15° |
| 2026-04-29 01:58 | -34.82305 | -58.53348 | 74 ft | 11 kts | 347° |
| 2026-04-29 01:58 | -34.82191 | -58.53467 | 74 ft | 24 kts | 323° |
| 2026-04-29 01:59 | -34.82031 | -58.53563 | 75 ft | 26 kts | 336° |
| 2026-04-29 01:59 | -34.81921 | -58.53545 | 76 ft | 16 kts | 88° |
| 2026-04-29 01:59 | -34.81952 | -58.53386 | 75 ft | 21 kts | 104° |
| 2026-04-29 01:59 | -34.81992 | -58.53191 | 74 ft | 25 kts | 105° |
| 2026-04-29 02:00 | -34.82037 | -58.52959 | 71 ft | 30 kts | 106° |
| 2026-04-29 02:00 | -34.82087 | -58.52711 | 70 ft | 31 kts | 104° |
| 2026-04-29 02:00 | -34.82142 | -58.52439 | 70 ft | 34 kts | 104° |
| 2026-04-29 02:00 | -34.82200 | -58.52145 | 71 ft | 29 kts | 104° |
| 2026-04-29 02:01 | -34.82241 | -58.51933 | 69 ft | 23 kts | 103° |
| 2026-04-29 02:01 | -34.82275 | -58.51820 | 67 ft | 7 kts | 134° |
| 2026-04-29 02:01 | -34.82320 | -58.51799 | 67 ft | 6 kts | 167° |
| 2026-04-29 02:01 | -34.82354 | -58.51793 | 67 ft | 2 kts | 179° |
| 2026-04-29 02:02 | -34.82387 | -58.51797 | 67 ft | 6 kts | 187° |
| 2026-04-29 02:02 | -34.82438 | -58.51807 | 67 ft | 5 kts | 192° |
| 2026-04-29 02:02 | -34.82473 | -58.51817 | 67 ft | 5 kts | 196° |
| 2026-04-29 02:02 | -34.82512 | -58.51853 | 68 ft | 8 kts | 236° |
| 2026-04-29 02:03 | -34.82523 | -58.51922 | 69 ft | 8 kts | 278° |
| 2026-04-29 02:03 | -34.82499 | -58.52037 | 71 ft | 34 kts | 284° |
| 2026-04-29 02:03 | -34.82366 | -58.52721 | 74 ft | 132 kts | 284° |
| 2026-04-29 02:03 | -34.82115 | -58.54088 | 664 ft | 189 kts | 285° |
| 2026-04-29 02:04 | -34.81887 | -58.55442 | 2601 ft | 156 kts | 284° |
| 2026-04-29 02:04 | -34.81642 | -58.56725 | 3164 ft | 172 kts | 283° |
| 2026-04-29 02:04 | -34.81357 | -58.58223 | 3619 ft | 198 kts | 284° |
| 2026-04-29 02:04 | -34.81366 | -58.59942 | 4272 ft | 217 kts | 254° |
| 2026-04-29 02:05 | -34.82132 | -58.61483 | 5354 ft | 218 kts | 239° |
| 2026-04-29 02:05 | -34.83036 | -58.62990 | 6028 ft | 228 kts | 238° |
| 2026-04-29 02:05 | -34.84016 | -58.64523 | 5915 ft | 234 kts | 236° |
| 2026-04-29 02:05 | -34.85022 | -58.66021 | 5951 ft | 220 kts | 235° |
| 2026-04-29 02:06 | -34.85994 | -58.67444 | 5967 ft | 219 kts | 235° |
| 2026-04-29 02:06 | -34.86991 | -58.68935 | 5989 ft | 238 kts | 241° |
| 2026-04-29 02:06 | -34.87487 | -58.70914 | 6696 ft | 253 kts | 268° |
| 2026-04-29 02:06 | -34.87598 | -58.72964 | 8026 ft | 251 kts | 263° |
| 2026-04-29 02:07 | -34.87849 | -58.75066 | 9205 ft | 255 kts | 260° |
| 2026-04-29 02:07 | -34.88144 | -58.77157 | 10284 ft | 262 kts | 259° |
| 2026-04-29 02:07 | -34.88493 | -58.79408 | 10923 ft | 286 kts | 258° |
| 2026-04-29 02:07 | -34.88909 | -58.81931 | 11429 ft | 315 kts | 258° |
| 2026-04-29 02:08 | -34.89346 | -58.84553 | 12535 ft | 323 kts | 258° |
| 2026-04-29 02:08 | -34.89807 | -58.87241 | 13538 ft | 332 kts | 258° |
| 2026-04-29 02:08 | -34.90275 | -58.89961 | 14659 ft | 335 kts | 258° |
| 2026-04-29 02:08 | -34.90754 | -58.92763 | 15678 ft | 341 kts | 258° |
| 2026-04-29 02:09 | -34.91236 | -58.95552 | 16737 ft | 344 kts | 257° |
| 2026-04-29 02:09 | -34.91726 | -58.98402 | 17727 ft | 349 kts | 257° |
| 2026-04-29 02:09 | -34.92218 | -59.01273 | 18734 ft | 354 kts | 257° |
| 2026-04-29 02:09 | -34.92726 | -59.04236 | 19667 ft | 361 kts | 257° |
| 2026-04-29 02:10 | -34.93243 | -59.07241 | 20614 ft | 366 kts | 257° |
| 2026-04-29 02:10 | -34.93761 | -59.10269 | 21502 ft | 371 kts | 257° |
| 2026-04-29 02:10 | -34.94284 | -59.13335 | 22358 ft | 375 kts | 257° |
| 2026-04-29 02:10 | -34.94817 | -59.16443 | 23130 ft | 381 kts | 256° |
| 2026-04-29 02:11 | -34.95356 | -59.19614 | 23904 ft | 386 kts | 256° |
| 2026-04-29 02:11 | -34.95897 | -59.22786 | 24640 ft | 390 kts | 256° |
| 2026-04-29 02:11 | -34.96449 | -59.26061 | 25346 ft | 396 kts | 256° |
| 2026-04-29 02:11 | -34.97008 | -59.29339 | 26061 ft | 400 kts | 256° |
| 2026-04-29 02:12 | -34.97573 | -59.32687 | 26705 ft | 405 kts | 255° |
| 2026-04-29 02:12 | -34.98140 | -59.36032 | 27314 ft | 410 kts | 255° |
| 2026-04-29 02:12 | -34.98716 | -59.39466 | 27911 ft | 415 kts | 256° |
| 2026-04-29 02:12 | -34.99298 | -59.42909 | 28483 ft | 420 kts | 255° |
| 2026-04-29 02:13 | -34.99882 | -59.46386 | 29054 ft | 424 kts | 255° |
| 2026-04-29 02:13 | -35.00471 | -59.49903 | 29581 ft | 428 kts | 255° |
| 2026-04-29 02:13 | -35.01073 | -59.53498 | 30126 ft | 432 kts | 255° |
| 2026-04-29 02:13 | -35.01665 | -59.57049 | 30857 ft | 430 kts | 255° |
| 2026-04-29 02:14 | -35.02233 | -59.60534 | 31530 ft | 430 kts | 256° |